sensor_id;sensor_type;location;lat;lon;timestamp;P1;durP1;ratioP1;P2;durP2;ratioP2
19406;SDS011;9839;53.364;-1.204;2023-10-08T00:02:44;23.23;;;7.60;;
19406;SDS011;9839;53.364;-1.204;2023-10-08T00:05:10;22.23;;;7.68;;
19406;SDS011;9839;53.364;-1.204;2023-10-08T00:07:35;16.98;;;6.00;;
19406;SDS011;9839;53.364;-1.204;2023-10-08T00:10:01;20.80;;;5.90;;
19406;SDS011;9839;53.364;-1.204;2023-10-08T00:12:27;15.82;;;5.53;;
19406;SDS011;9839;53.364;-1.204;2023-10-08T00:14:54;17.70;;;5.38;;
19406;SDS011;9839;53.364;-1.204;2023-10-08T00:17:20;16.50;;;5.68;;
19406;SDS011;9839;53.364;-1.204;2023-10-08T00:19:46;12.05;;;4.93;;
19406;SDS011;9839;53.364;-1.204;2023-10-08T00:22:17;17.13;;;5.80;;
19406;SDS011;9839;53.364;-1.204;2023-10-08T00:24:43;19.23;;;7.20;;
19406;SDS011;9839;53.364;-1.204;2023-10-08T00:27:11;17.70;;;6.50;;
19406;SDS011;9839;53.364;-1.204;2023-10-08T00:29:40;16.30;;;6.32;;
19406;SDS011;9839;53.364;-1.204;2023-10-08T00:32:08;20.02;;;8.68;;
19406;SDS011;9839;53.364;-1.204;2023-10-08T00:34:37;17.27;;;6.35;;
19406;SDS011;9839;53.364;-1.204;2023-10-08T00:37:09;22.05;;;7.25;;
19406;SDS011;9839;53.364;-1.204;2023-10-08T00:39:35;19.45;;;6.60;;
19406;SDS011;9839;53.364;-1.204;2023-10-08T00:42:03;21.90;;;6.65;;
19406;SDS011;9839;53.364;-1.204;2023-10-08T00:44:31;21.65;;;5.78;;
19406;SDS011;9839;53.364;-1.204;2023-10-08T00:47:00;23.02;;;5.90;;
19406;SDS011;9839;53.364;-1.204;2023-10-08T00:49:27;24.20;;;5.38;;
19406;SDS011;9839;53.364;-1.204;2023-10-08T00:52:05;21.05;;;5.97;;
19406;SDS011;9839;53.364;-1.204;2023-10-08T00:54:36;20.83;;;5.90;;
19406;SDS011;9839;53.364;-1.204;2023-10-08T00:57:28;24.20;;;5.30;;
19406;SDS011;9839;53.364;-1.204;2023-10-08T00:59:55;16.52;;;4.40;;
19406;SDS011;9839;53.364;-1.204;2023-10-08T01:02:32;19.13;;;6.38;;
19406;SDS011;9839;53.364;-1.204;2023-10-08T01:05:16;20.60;;;6.30;;
19406;SDS011;9839;53.364;-1.204;2023-10-08T01:07:50;22.55;;;5.88;;
19406;SDS011;9839;53.364;-1.204;2023-10-08T01:10:17;19.65;;;5.63;;
19406;SDS011;9839;53.364;-1.204;2023-10-08T01:12:48;18.65;;;5.72;;
19406;SDS011;9839;53.364;-1.204;2023-10-08T01:15:20;25.40;;;5.47;;
19406;SDS011;9839;53.364;-1.204;2023-10-08T01:17:53;14.68;;;5.53;;
19406;SDS011;9839;53.364;-1.204;2023-10-08T01:20:26;17.83;;;5.90;;
19406;SDS011;9839;53.364;-1.204;2023-10-08T01:22:59;14.80;;;4.90;;
19406;SDS011;9839;53.364;-1.204;2023-10-08T01:25:35;12.48;;;5.50;;
19406;SDS011;9839;53.364;-1.204;2023-10-08T01:28:01;19.70;;;6.65;;
19406;SDS011;9839;53.364;-1.204;2023-10-08T01:30:33;14.90;;;5.45;;
19406;SDS011;9839;53.364;-1.204;2023-10-08T01:33:06;26.50;;;7.00;;
19406;SDS011;9839;53.364;-1.204;2023-10-08T01:35:35;14.30;;;4.90;;
19406;SDS011;9839;53.364;-1.204;2023-10-08T01:38:00;30.20;;;5.80;;
19406;SDS011;9839;53.364;-1.204;2023-10-08T01:40:26;22.70;;;5.47;;
19406;SDS011;9839;53.364;-1.204;2023-10-08T01:42:54;18.75;;;5.65;;
19406;SDS011;9839;53.364;-1.204;2023-10-08T01:45:20;20.63;;;6.00;;
19406;SDS011;9839;53.364;-1.204;2023-10-08T01:47:45;15.98;;;5.13;;
19406;SDS011;9839;53.364;-1.204;2023-10-08T01:50:15;20.92;;;5.57;;
19406;SDS011;9839;53.364;-1.204;2023-10-08T01:52:50;19.98;;;5.93;;
19406;SDS011;9839;53.364;-1.204;2023-10-08T01:55:17;19.48;;;6.43;;
19406;SDS011;9839;53.364;-1.204;2023-10-08T01:57:43;19.58;;;5.47;;
19406;SDS011;9839;53.364;-1.204;2023-10-08T02:00:09;23.63;;;6.70;;
19406;SDS011;9839;53.364;-1.204;2023-10-08T02:02:36;21.55;;;6.35;;
19406;SDS011;9839;53.364;-1.204;2023-10-08T02:05:01;22.48;;;6.43;;
19406;SDS011;9839;53.364;-1.204;2023-10-08T02:07:29;31.60;;;7.38;;
19406;SDS011;9839;53.364;-1.204;2023-10-08T02:09:56;24.13;;;6.47;;
19406;SDS011;9839;53.364;-1.204;2023-10-08T02:12:22;20.35;;;5.85;;
19406;SDS011;9839;53.364;-1.204;2023-10-08T02:14:48;18.85;;;5.82;;
19406;SDS011;9839;53.364;-1.204;2023-10-08T02:17:14;24.25;;;5.68;;
19406;SDS011;9839;53.364;-1.204;2023-10-08T02:19:39;11.45;;;5.72;;
19406;SDS011;9839;53.364;-1.204;2023-10-08T02:22:06;16.73;;;5.43;;
19406;SDS011;9839;53.364;-1.204;2023-10-08T02:24:35;19.30;;;5.75;;
19406;SDS011;9839;53.364;-1.204;2023-10-08T02:27:01;23.88;;;6.03;;
19406;SDS011;9839;53.364;-1.204;2023-10-08T02:29:28;24.73;;;6.68;;
19406;SDS011;9839;53.364;-1.204;2023-10-08T02:31:55;15.57;;;5.30;;
19406;SDS011;9839;53.364;-1.204;2023-10-08T02:34:22;13.63;;;4.80;;
19406;SDS011;9839;53.364;-1.204;2023-10-08T02:36:48;10.23;;;4.55;;
19406;SDS011;9839;53.364;-1.204;2023-10-08T02:39:13;11.23;;;4.53;;
19406;SDS011;9839;53.364;-1.204;2023-10-08T02:41:43;13.95;;;5.25;;
19406;SDS011;9839;53.364;-1.204;2023-10-08T02:44:13;12.98;;;4.78;;
19406;SDS011;9839;53.364;-1.204;2023-10-08T02:46:40;12.77;;;5.47;;
19406;SDS011;9839;53.364;-1.204;2023-10-08T02:49:07;14.38;;;4.95;;
19406;SDS011;9839;53.364;-1.204;2023-10-08T02:51:36;13.65;;;5.03;;
19406;SDS011;9839;53.364;-1.204;2023-10-08T02:54:04;11.57;;;5.15;;
19406;SDS011;9839;53.364;-1.204;2023-10-08T02:56:31;11.07;;;4.82;;
19406;SDS011;9839;53.364;-1.204;2023-10-08T02:58:58;25.55;;;6.35;;
19406;SDS011;9839;53.364;-1.204;2023-10-08T03:01:25;13.77;;;5.78;;
19406;SDS011;9839;53.364;-1.204;2023-10-08T03:03:51;12.75;;;5.00;;
19406;SDS011;9839;53.364;-1.204;2023-10-08T03:06:28;16.13;;;5.35;;
19406;SDS011;9839;53.364;-1.204;2023-10-08T03:08:57;14.43;;;5.38;;
19406;SDS011;9839;53.364;-1.204;2023-10-08T03:11:28;22.27;;;6.60;;
19406;SDS011;9839;53.364;-1.204;2023-10-08T03:13:53;26.55;;;7.43;;
19406;SDS011;9839;53.364;-1.204;2023-10-08T03:16:21;24.17;;;6.97;;
19406;SDS011;9839;53.364;-1.204;2023-10-08T03:18:53;23.27;;;7.63;;
19406;SDS011;9839;53.364;-1.204;2023-10-08T03:21:20;22.67;;;6.68;;
19406;SDS011;9839;53.364;-1.204;2023-10-08T03:23:46;15.38;;;6.35;;
19406;SDS011;9839;53.364;-1.204;2023-10-08T03:26:32;14.40;;;7.07;;
19406;SDS011;9839;53.364;-1.204;2023-10-08T03:28:58;21.35;;;6.50;;
19406;SDS011;9839;53.364;-1.204;2023-10-08T03:31:25;19.63;;;6.50;;
19406;SDS011;9839;53.364;-1.204;2023-10-08T03:34:15;26.17;;;6.90;;
19406;SDS011;9839;53.364;-1.204;2023-10-08T03:36:43;24.33;;;7.53;;
19406;SDS011;9839;53.364;-1.204;2023-10-08T03:39:13;16.90;;;6.53;;
19406;SDS011;9839;53.364;-1.204;2023-10-08T03:41:40;25.23;;;7.63;;
19406;SDS011;9839;53.364;-1.204;2023-10-08T03:44:06;23.80;;;7.43;;
19406;SDS011;9839;53.364;-1.204;2023-10-08T03:46:42;19.85;;;6.95;;
19406;SDS011;9839;53.364;-1.204;2023-10-08T03:49:11;15.95;;;7.40;;
19406;SDS011;9839;53.364;-1.204;2023-10-08T03:51:48;31.27;;;7.32;;
19406;SDS011;9839;53.364;-1.204;2023-10-08T03:54:20;20.38;;;6.55;;
19406;SDS011;9839;53.364;-1.204;2023-10-08T03:56:55;22.40;;;6.35;;
19406;SDS011;9839;53.364;-1.204;2023-10-08T03:59:21;21.90;;;6.53;;
19406;SDS011;9839;53.364;-1.204;2023-10-08T04:02:02;23.30;;;6.72;;
19406;SDS011;9839;53.364;-1.204;2023-10-08T04:04:49;24.15;;;6.47;;
19406;SDS011;9839;53.364;-1.204;2023-10-08T04:07:19;25.42;;;7.35;;
19406;SDS011;9839;53.364;-1.204;2023-10-08T04:10:03;28.70;;;7.90;;
19406;SDS011;9839;53.364;-1.204;2023-10-08T04:12:34;31.58;;;8.10;;
19406;SDS011;9839;53.364;-1.204;2023-10-08T04:15:04;20.63;;;6.85;;
19406;SDS011;9839;53.364;-1.204;2023-10-08T04:17:33;24.95;;;6.40;;
19406;SDS011;9839;53.364;-1.204;2023-10-08T04:20:09;20.77;;;6.43;;
19406;SDS011;9839;53.364;-1.204;2023-10-08T04:22:58;27.92;;;6.43;;
19406;SDS011;9839;53.364;-1.204;2023-10-08T04:25:27;36.20;;;7.50;;
19406;SDS011;9839;53.364;-1.204;2023-10-08T04:27:57;22.33;;;6.72;;
19406;SDS011;9839;53.364;-1.204;2023-10-08T04:30:32;22.35;;;6.40;;
19406;SDS011;9839;53.364;-1.204;2023-10-08T04:33:05;19.35;;;6.40;;
19406;SDS011;9839;53.364;-1.204;2023-10-08T04:35:37;20.83;;;5.85;;
19406;SDS011;9839;53.364;-1.204;2023-10-08T04:38:16;24.50;;;6.75;;
19406;SDS011;9839;53.364;-1.204;2023-10-08T04:40:44;38.47;;;7.53;;
19406;SDS011;9839;53.364;-1.204;2023-10-08T04:43:16;27.85;;;7.05;;
19406;SDS011;9839;53.364;-1.204;2023-10-08T04:45:50;20.73;;;6.47;;
19406;SDS011;9839;53.364;-1.204;2023-10-08T04:48:18;25.73;;;7.50;;
19406;SDS011;9839;53.364;-1.204;2023-10-08T04:50:47;28.60;;;7.45;;
19406;SDS011;9839;53.364;-1.204;2023-10-08T04:53:24;39.50;;;7.90;;
19406;SDS011;9839;53.364;-1.204;2023-10-08T04:55:59;42.63;;;11.25;;
19406;SDS011;9839;53.364;-1.204;2023-10-08T04:58:31;38.50;;;9.18;;
19406;SDS011;9839;53.364;-1.204;2023-10-08T05:01:02;36.70;;;8.23;;
19406;SDS011;9839;53.364;-1.204;2023-10-08T05:03:49;33.38;;;8.80;;
19406;SDS011;9839;53.364;-1.204;2023-10-08T05:06:23;28.52;;;8.80;;
19406;SDS011;9839;53.364;-1.204;2023-10-08T05:09:11;51.28;;;10.00;;
19406;SDS011;9839;53.364;-1.204;2023-10-08T05:11:47;47.13;;;11.63;;
19406;SDS011;9839;53.364;-1.204;2023-10-08T05:14:20;25.52;;;8.82;;
19406;SDS011;9839;53.364;-1.204;2023-10-08T05:16:59;39.28;;;9.73;;
19406;SDS011;9839;53.364;-1.204;2023-10-08T05:19:28;43.70;;;11.57;;
19406;SDS011;9839;53.364;-1.204;2023-10-08T05:22:05;31.98;;;10.55;;
19406;SDS011;9839;53.364;-1.204;2023-10-08T05:24:44;44.63;;;11.93;;
19406;SDS011;9839;53.364;-1.204;2023-10-08T05:27:31;44.00;;;10.95;;
19406;SDS011;9839;53.364;-1.204;2023-10-08T05:30:25;36.38;;;10.63;;
19406;SDS011;9839;53.364;-1.204;2023-10-08T05:33:03;34.45;;;11.57;;
19406;SDS011;9839;53.364;-1.204;2023-10-08T05:35:39;92.28;;;16.20;;
19406;SDS011;9839;53.364;-1.204;2023-10-08T05:38:06;106.88;;;26.45;;
19406;SDS011;9839;53.364;-1.204;2023-10-08T05:40:44;69.13;;;18.02;;
19406;SDS011;9839;53.364;-1.204;2023-10-08T05:43:35;65.05;;;14.00;;
19406;SDS011;9839;53.364;-1.204;2023-10-08T05:46:08;35.53;;;12.50;;
19406;SDS011;9839;53.364;-1.204;2023-10-08T05:51:33;37.97;;;12.65;;
19406;SDS011;9839;53.364;-1.204;2023-10-08T05:56:57;36.33;;;11.40;;
19406;SDS011;9839;53.364;-1.204;2023-10-08T05:59:40;34.05;;;11.88;;
19406;SDS011;9839;53.364;-1.204;2023-10-08T06:02:21;46.85;;;12.25;;
19406;SDS011;9839;53.364;-1.204;2023-10-08T06:05:13;45.72;;;12.13;;
19406;SDS011;9839;53.364;-1.204;2023-10-08T06:07:46;32.28;;;12.27;;
19406;SDS011;9839;53.364;-1.204;2023-10-08T06:10:13;33.38;;;11.70;;
19406;SDS011;9839;53.364;-1.204;2023-10-08T06:13:03;33.05;;;11.10;;
19406;SDS011;9839;53.364;-1.204;2023-10-08T06:18:31;27.73;;;10.43;;
19406;SDS011;9839;53.364;-1.204;2023-10-08T06:21:01;29.52;;;12.38;;
19406;SDS011;9839;53.364;-1.204;2023-10-08T06:23:33;28.67;;;10.93;;
19406;SDS011;9839;53.364;-1.204;2023-10-08T06:26:03;31.40;;;12.25;;
19406;SDS011;9839;53.364;-1.204;2023-10-08T06:28:40;34.72;;;12.20;;
19406;SDS011;9839;53.364;-1.204;2023-10-08T06:31:07;28.58;;;11.38;;
19406;SDS011;9839;53.364;-1.204;2023-10-08T06:33:37;35.25;;;11.75;;
19406;SDS011;9839;53.364;-1.204;2023-10-08T06:36:03;29.75;;;11.20;;
19406;SDS011;9839;53.364;-1.204;2023-10-08T06:38:41;29.10;;;10.32;;
19406;SDS011;9839;53.364;-1.204;2023-10-08T06:41:09;24.35;;;10.48;;
19406;SDS011;9839;53.364;-1.204;2023-10-08T06:43:45;26.30;;;10.40;;
19406;SDS011;9839;53.364;-1.204;2023-10-08T06:46:30;29.77;;;12.30;;
19406;SDS011;9839;53.364;-1.204;2023-10-08T06:48:58;26.40;;;11.82;;
19406;SDS011;9839;53.364;-1.204;2023-10-08T06:51:24;27.02;;;11.52;;
19406;SDS011;9839;53.364;-1.204;2023-10-08T06:53:51;30.08;;;11.32;;
19406;SDS011;9839;53.364;-1.204;2023-10-08T06:56:16;26.83;;;10.63;;
19406;SDS011;9839;53.364;-1.204;2023-10-08T06:58:44;26.95;;;10.57;;
19406;SDS011;9839;53.364;-1.204;2023-10-08T07:01:18;27.35;;;10.98;;
19406;SDS011;9839;53.364;-1.204;2023-10-08T07:03:49;31.02;;;10.82;;
19406;SDS011;9839;53.364;-1.204;2023-10-08T07:06:16;27.65;;;11.10;;
19406;SDS011;9839;53.364;-1.204;2023-10-08T07:08:42;29.13;;;11.90;;
19406;SDS011;9839;53.364;-1.204;2023-10-08T07:11:12;26.40;;;10.88;;
19406;SDS011;9839;53.364;-1.204;2023-10-08T07:13:37;25.75;;;10.65;;
19406;SDS011;9839;53.364;-1.204;2023-10-08T07:16:05;20.58;;;9.63;;
19406;SDS011;9839;53.364;-1.204;2023-10-08T07:18:36;36.78;;;9.48;;
19406;SDS011;9839;53.364;-1.204;2023-10-08T07:21:02;35.83;;;9.38;;
19406;SDS011;9839;53.364;-1.204;2023-10-08T07:23:29;36.08;;;9.63;;
19406;SDS011;9839;53.364;-1.204;2023-10-08T07:26:00;27.40;;;10.15;;
19406;SDS011;9839;53.364;-1.204;2023-10-08T07:28:47;30.45;;;10.27;;
19406;SDS011;9839;53.364;-1.204;2023-10-08T07:31:13;35.65;;;10.43;;
19406;SDS011;9839;53.364;-1.204;2023-10-08T07:33:41;25.88;;;10.80;;
19406;SDS011;9839;53.364;-1.204;2023-10-08T07:36:12;29.48;;;9.43;;
19406;SDS011;9839;53.364;-1.204;2023-10-08T07:38:39;24.33;;;10.60;;
19406;SDS011;9839;53.364;-1.204;2023-10-08T07:41:08;35.63;;;9.70;;
19406;SDS011;9839;53.364;-1.204;2023-10-08T07:43:40;27.90;;;8.90;;
19406;SDS011;9839;53.364;-1.204;2023-10-08T07:46:11;17.67;;;7.93;;
19406;SDS011;9839;53.364;-1.204;2023-10-08T07:48:38;33.47;;;8.68;;
19406;SDS011;9839;53.364;-1.204;2023-10-08T07:51:09;30.42;;;7.80;;
19406;SDS011;9839;53.364;-1.204;2023-10-08T07:53:35;17.40;;;7.15;;
19406;SDS011;9839;53.364;-1.204;2023-10-08T07:56:06;19.58;;;7.75;;
19406;SDS011;9839;53.364;-1.204;2023-10-08T07:58:35;17.45;;;7.10;;
19406;SDS011;9839;53.364;-1.204;2023-10-08T08:01:04;62.63;;;8.55;;
19406;SDS011;9839;53.364;-1.204;2023-10-08T08:03:31;14.13;;;6.63;;
19406;SDS011;9839;53.364;-1.204;2023-10-08T08:06:02;26.98;;;8.40;;
19406;SDS011;9839;53.364;-1.204;2023-10-08T08:08:31;16.00;;;7.65;;
19406;SDS011;9839;53.364;-1.204;2023-10-08T08:10:58;20.25;;;7.82;;
19406;SDS011;9839;53.364;-1.204;2023-10-08T08:13:29;26.15;;;9.45;;
19406;SDS011;9839;53.364;-1.204;2023-10-08T08:15:55;27.20;;;8.95;;
19406;SDS011;9839;53.364;-1.204;2023-10-08T08:18:24;21.52;;;7.93;;
19406;SDS011;9839;53.364;-1.204;2023-10-08T08:20:50;41.40;;;9.68;;
19406;SDS011;9839;53.364;-1.204;2023-10-08T08:23:16;29.60;;;8.70;;
19406;SDS011;9839;53.364;-1.204;2023-10-08T08:25:42;29.42;;;8.77;;
19406;SDS011;9839;53.364;-1.204;2023-10-08T08:28:26;23.80;;;8.65;;
19406;SDS011;9839;53.364;-1.204;2023-10-08T08:30:54;23.42;;;8.85;;
19406;SDS011;9839;53.364;-1.204;2023-10-08T08:33:20;27.08;;;8.43;;
19406;SDS011;9839;53.364;-1.204;2023-10-08T08:36:02;25.52;;;8.52;;
19406;SDS011;9839;53.364;-1.204;2023-10-08T08:38:30;18.85;;;7.47;;
19406;SDS011;9839;53.364;-1.204;2023-10-08T08:41:03;19.25;;;7.93;;
19406;SDS011;9839;53.364;-1.204;2023-10-08T08:43:35;22.27;;;8.15;;
19406;SDS011;9839;53.364;-1.204;2023-10-08T08:46:04;26.05;;;8.02;;
19406;SDS011;9839;53.364;-1.204;2023-10-08T08:48:32;21.92;;;8.35;;
19406;SDS011;9839;53.364;-1.204;2023-10-08T08:50:59;20.63;;;8.27;;
19406;SDS011;9839;53.364;-1.204;2023-10-08T08:53:25;20.05;;;7.03;;
19406;SDS011;9839;53.364;-1.204;2023-10-08T08:55:51;17.27;;;6.68;;
19406;SDS011;9839;53.364;-1.204;2023-10-08T08:58:19;17.77;;;6.68;;
19406;SDS011;9839;53.364;-1.204;2023-10-08T09:00:45;17.10;;;6.57;;
19406;SDS011;9839;53.364;-1.204;2023-10-08T09:03:12;20.98;;;7.15;;
19406;SDS011;9839;53.364;-1.204;2023-10-08T09:05:38;14.18;;;6.72;;
19406;SDS011;9839;53.364;-1.204;2023-10-08T09:08:06;13.20;;;6.43;;
19406;SDS011;9839;53.364;-1.204;2023-10-08T09:10:32;13.80;;;7.50;;
19406;SDS011;9839;53.364;-1.204;2023-10-08T09:13:02;18.88;;;7.15;;
19406;SDS011;9839;53.364;-1.204;2023-10-08T09:15:32;15.10;;;6.00;;
19406;SDS011;9839;53.364;-1.204;2023-10-08T09:17:58;13.38;;;6.30;;
19406;SDS011;9839;53.364;-1.204;2023-10-08T09:20:29;12.65;;;6.30;;
19406;SDS011;9839;53.364;-1.204;2023-10-08T09:23:06;15.00;;;6.68;;
19406;SDS011;9839;53.364;-1.204;2023-10-08T09:25:32;16.27;;;6.75;;
19406;SDS011;9839;53.364;-1.204;2023-10-08T09:27:58;13.88;;;5.93;;
19406;SDS011;9839;53.364;-1.204;2023-10-08T09:30:24;17.73;;;7.15;;
19406;SDS011;9839;53.364;-1.204;2023-10-08T09:32:51;14.25;;;6.30;;
19406;SDS011;9839;53.364;-1.204;2023-10-08T09:35:16;21.80;;;7.22;;
19406;SDS011;9839;53.364;-1.204;2023-10-08T09:37:44;17.27;;;6.28;;
19406;SDS011;9839;53.364;-1.204;2023-10-08T09:40:09;12.98;;;6.55;;
19406;SDS011;9839;53.364;-1.204;2023-10-08T09:42:39;12.70;;;5.82;;
19406;SDS011;9839;53.364;-1.204;2023-10-08T09:45:07;14.70;;;6.68;;
19406;SDS011;9839;53.364;-1.204;2023-10-08T09:47:38;11.27;;;6.53;;
19406;SDS011;9839;53.364;-1.204;2023-10-08T09:50:04;14.73;;;6.55;;
19406;SDS011;9839;53.364;-1.204;2023-10-08T09:52:45;13.80;;;6.47;;
19406;SDS011;9839;53.364;-1.204;2023-10-08T09:55:17;13.80;;;6.40;;
19406;SDS011;9839;53.364;-1.204;2023-10-08T09:57:43;11.57;;;6.35;;
19406;SDS011;9839;53.364;-1.204;2023-10-08T10:00:09;15.35;;;6.10;;
19406;SDS011;9839;53.364;-1.204;2023-10-08T10:02:43;12.50;;;6.53;;
19406;SDS011;9839;53.364;-1.204;2023-10-08T10:05:12;16.60;;;6.50;;
19406;SDS011;9839;53.364;-1.204;2023-10-08T10:07:38;12.65;;;6.30;;
19406;SDS011;9839;53.364;-1.204;2023-10-08T10:10:30;15.90;;;6.13;;
19406;SDS011;9839;53.364;-1.204;2023-10-08T10:13:00;13.98;;;6.50;;
19406;SDS011;9839;53.364;-1.204;2023-10-08T10:15:28;14.15;;;6.68;;
19406;SDS011;9839;53.364;-1.204;2023-10-08T10:17:58;13.60;;;6.50;;
19406;SDS011;9839;53.364;-1.204;2023-10-08T10:20:24;13.30;;;6.68;;
19406;SDS011;9839;53.364;-1.204;2023-10-08T10:22:50;14.73;;;6.95;;
19406;SDS011;9839;53.364;-1.204;2023-10-08T10:25:16;16.75;;;7.30;;
19406;SDS011;9839;53.364;-1.204;2023-10-08T10:28:28;17.75;;;7.65;;
19406;SDS011;9839;53.364;-1.204;2023-10-08T10:30:33;11.32;;;6.72;;
19406;SDS011;9839;53.364;-1.204;2023-10-08T10:33:02;17.90;;;7.32;;
19406;SDS011;9839;53.364;-1.204;2023-10-08T10:35:30;17.67;;;7.90;;
19406;SDS011;9839;53.364;-1.204;2023-10-08T10:37:58;12.57;;;6.88;;
19406;SDS011;9839;53.364;-1.204;2023-10-08T10:40:28;20.35;;;7.60;;
19406;SDS011;9839;53.364;-1.204;2023-10-08T10:42:57;17.42;;;7.43;;
19406;SDS011;9839;53.364;-1.204;2023-10-08T10:45:22;16.88;;;7.18;;
19406;SDS011;9839;53.364;-1.204;2023-10-08T10:48:02;20.23;;;8.07;;
19406;SDS011;9839;53.364;-1.204;2023-10-08T10:50:48;11.23;;;6.50;;
19406;SDS011;9839;53.364;-1.204;2023-10-08T10:53:31;13.27;;;6.80;;
19406;SDS011;9839;53.364;-1.204;2023-10-08T10:55:59;15.70;;;7.95;;
19406;SDS011;9839;53.364;-1.204;2023-10-08T10:58:34;11.93;;;6.40;;
19406;SDS011;9839;53.364;-1.204;2023-10-08T11:01:06;16.15;;;6.60;;
19406;SDS011;9839;53.364;-1.204;2023-10-08T11:03:58;13.05;;;6.97;;
19406;SDS011;9839;53.364;-1.204;2023-10-08T11:06:23;11.32;;;6.28;;
19406;SDS011;9839;53.364;-1.204;2023-10-08T11:08:50;14.23;;;6.55;;
19406;SDS011;9839;53.364;-1.204;2023-10-08T11:11:19;12.45;;;6.53;;
19406;SDS011;9839;53.364;-1.204;2023-10-08T11:13:52;15.75;;;6.60;;
19406;SDS011;9839;53.364;-1.204;2023-10-08T11:16:22;12.43;;;6.55;;
19406;SDS011;9839;53.364;-1.204;2023-10-08T11:18:48;15.07;;;6.32;;
19406;SDS011;9839;53.364;-1.204;2023-10-08T11:21:16;12.20;;;6.65;;
19406;SDS011;9839;53.364;-1.204;2023-10-08T11:26:19;16.88;;;7.50;;
19406;SDS011;9839;53.364;-1.204;2023-10-08T11:28:46;13.38;;;6.53;;
19406;SDS011;9839;53.364;-1.204;2023-10-08T11:31:15;12.60;;;6.80;;
19406;SDS011;9839;53.364;-1.204;2023-10-08T11:33:45;14.27;;;7.20;;
19406;SDS011;9839;53.364;-1.204;2023-10-08T11:36:20;11.77;;;6.45;;
19406;SDS011;9839;53.364;-1.204;2023-10-08T11:39:08;17.02;;;6.97;;
19406;SDS011;9839;53.364;-1.204;2023-10-08T11:41:36;14.60;;;6.03;;
19406;SDS011;9839;53.364;-1.204;2023-10-08T11:44:15;16.75;;;6.40;;
19406;SDS011;9839;53.364;-1.204;2023-10-08T11:46:44;13.10;;;6.28;;
19406;SDS011;9839;53.364;-1.204;2023-10-08T11:49:10;16.17;;;6.30;;
19406;SDS011;9839;53.364;-1.204;2023-10-08T11:51:43;17.38;;;6.38;;
19406;SDS011;9839;53.364;-1.204;2023-10-08T11:54:09;9.68;;;5.00;;
19406;SDS011;9839;53.364;-1.204;2023-10-08T11:56:39;12.80;;;6.22;;
19406;SDS011;9839;53.364;-1.204;2023-10-08T11:59:05;11.27;;;6.22;;
19406;SDS011;9839;53.364;-1.204;2023-10-08T12:01:34;12.23;;;6.38;;
19406;SDS011;9839;53.364;-1.204;2023-10-08T12:04:02;15.80;;;5.10;;
19406;SDS011;9839;53.364;-1.204;2023-10-08T12:06:28;13.63;;;6.03;;
19406;SDS011;9839;53.364;-1.204;2023-10-08T12:08:58;15.13;;;6.50;;
19406;SDS011;9839;53.364;-1.204;2023-10-08T12:11:36;16.60;;;6.72;;
19406;SDS011;9839;53.364;-1.204;2023-10-08T12:14:03;10.30;;;6.03;;
19406;SDS011;9839;53.364;-1.204;2023-10-08T12:16:28;12.68;;;7.03;;
19406;SDS011;9839;53.364;-1.204;2023-10-08T12:19:01;13.05;;;6.20;;
19406;SDS011;9839;53.364;-1.204;2023-10-08T12:21:31;13.45;;;6.53;;
19406;SDS011;9839;53.364;-1.204;2023-10-08T12:23:57;12.15;;;6.22;;
19406;SDS011;9839;53.364;-1.204;2023-10-08T12:26:23;13.32;;;6.45;;
19406;SDS011;9839;53.364;-1.204;2023-10-08T12:28:49;13.65;;;6.72;;
19406;SDS011;9839;53.364;-1.204;2023-10-08T12:31:17;13.43;;;6.20;;
19406;SDS011;9839;53.364;-1.204;2023-10-08T12:33:52;12.50;;;6.57;;
19406;SDS011;9839;53.364;-1.204;2023-10-08T12:36:21;15.85;;;6.65;;
19406;SDS011;9839;53.364;-1.204;2023-10-08T12:38:51;14.52;;;6.43;;
19406;SDS011;9839;53.364;-1.204;2023-10-08T12:41:23;12.85;;;5.88;;
19406;SDS011;9839;53.364;-1.204;2023-10-08T12:43:52;19.90;;;6.05;;
19406;SDS011;9839;53.364;-1.204;2023-10-08T12:46:18;15.13;;;6.72;;
19406;SDS011;9839;53.364;-1.204;2023-10-08T12:48:47;13.40;;;6.97;;
19406;SDS011;9839;53.364;-1.204;2023-10-08T12:51:17;14.18;;;6.05;;
19406;SDS011;9839;53.364;-1.204;2023-10-08T12:53:43;12.90;;;6.80;;
19406;SDS011;9839;53.364;-1.204;2023-10-08T12:56:16;12.60;;;6.00;;
19406;SDS011;9839;53.364;-1.204;2023-10-08T12:58:47;10.07;;;6.43;;
19406;SDS011;9839;53.364;-1.204;2023-10-08T13:01:18;13.93;;;6.60;;
19406;SDS011;9839;53.364;-1.204;2023-10-08T13:03:45;16.70;;;6.47;;
19406;SDS011;9839;53.364;-1.204;2023-10-08T13:06:14;15.52;;;6.22;;
19406;SDS011;9839;53.364;-1.204;2023-10-08T13:08:50;15.20;;;6.70;;
19406;SDS011;9839;53.364;-1.204;2023-10-08T13:11:18;12.85;;;6.47;;
19406;SDS011;9839;53.364;-1.204;2023-10-08T13:13:48;13.85;;;6.68;;
19406;SDS011;9839;53.364;-1.204;2023-10-08T13:16:32;16.40;;;7.38;;
19406;SDS011;9839;53.364;-1.204;2023-10-08T13:18:57;14.32;;;6.35;;
19406;SDS011;9839;53.364;-1.204;2023-10-08T13:21:26;18.00;;;7.88;;
19406;SDS011;9839;53.364;-1.204;2023-10-08T13:23:53;16.48;;;7.15;;
19406;SDS011;9839;53.364;-1.204;2023-10-08T13:26:22;14.98;;;6.45;;
19406;SDS011;9839;53.364;-1.204;2023-10-08T13:28:50;13.77;;;6.93;;
19406;SDS011;9839;53.364;-1.204;2023-10-08T13:31:16;11.82;;;6.10;;
19406;SDS011;9839;53.364;-1.204;2023-10-08T13:33:42;14.45;;;6.38;;
19406;SDS011;9839;53.364;-1.204;2023-10-08T13:36:09;15.43;;;7.10;;
19406;SDS011;9839;53.364;-1.204;2023-10-08T13:38:36;13.52;;;6.65;;
19406;SDS011;9839;53.364;-1.204;2023-10-08T13:41:03;13.43;;;6.65;;
19406;SDS011;9839;53.364;-1.204;2023-10-08T13:43:34;14.88;;;6.30;;
19406;SDS011;9839;53.364;-1.204;2023-10-08T13:46:04;15.40;;;6.05;;
19406;SDS011;9839;53.364;-1.204;2023-10-08T13:48:32;10.32;;;5.40;;
19406;SDS011;9839;53.364;-1.204;2023-10-08T13:51:04;15.02;;;6.05;;
19406;SDS011;9839;53.364;-1.204;2023-10-08T13:53:31;12.27;;;6.68;;
19406;SDS011;9839;53.364;-1.204;2023-10-08T13:55:58;17.48;;;7.25;;
19406;SDS011;9839;53.364;-1.204;2023-10-08T13:58:27;14.60;;;5.97;;
19406;SDS011;9839;53.364;-1.204;2023-10-08T14:00:55;10.00;;;5.78;;
19406;SDS011;9839;53.364;-1.204;2023-10-08T14:03:21;18.08;;;6.10;;
19406;SDS011;9839;53.364;-1.204;2023-10-08T14:05:48;10.43;;;5.82;;
19406;SDS011;9839;53.364;-1.204;2023-10-08T14:08:16;19.85;;;6.63;;
19406;SDS011;9839;53.364;-1.204;2023-10-08T14:10:43;13.70;;;5.30;;
19406;SDS011;9839;53.364;-1.204;2023-10-08T14:13:09;8.15;;;5.05;;
19406;SDS011;9839;53.364;-1.204;2023-10-08T14:15:34;10.70;;;5.20;;
19406;SDS011;9839;53.364;-1.204;2023-10-08T14:18:07;14.80;;;6.25;;
19406;SDS011;9839;53.364;-1.204;2023-10-08T14:20:33;11.40;;;5.25;;
19406;SDS011;9839;53.364;-1.204;2023-10-08T14:22:59;15.45;;;6.07;;
19406;SDS011;9839;53.364;-1.204;2023-10-08T14:25:27;13.65;;;5.78;;
19406;SDS011;9839;53.364;-1.204;2023-10-08T14:27:58;14.30;;;5.82;;
19406;SDS011;9839;53.364;-1.204;2023-10-08T14:30:30;10.48;;;5.78;;
19406;SDS011;9839;53.364;-1.204;2023-10-08T14:32:58;12.75;;;4.90;;
19406;SDS011;9839;53.364;-1.204;2023-10-08T14:35:23;15.73;;;5.50;;
19406;SDS011;9839;53.364;-1.204;2023-10-08T14:38:07;12.30;;;5.82;;
19406;SDS011;9839;53.364;-1.204;2023-10-08T14:40:51;12.07;;;4.75;;
19406;SDS011;9839;53.364;-1.204;2023-10-08T14:43:35;14.43;;;4.97;;
19406;SDS011;9839;53.364;-1.204;2023-10-08T14:46:03;11.45;;;4.78;;
19406;SDS011;9839;53.364;-1.204;2023-10-08T14:48:34;13.43;;;5.28;;
19406;SDS011;9839;53.364;-1.204;2023-10-08T14:51:03;11.48;;;4.72;;
19406;SDS011;9839;53.364;-1.204;2023-10-08T14:53:29;10.45;;;4.10;;
19406;SDS011;9839;53.364;-1.204;2023-10-08T14:55:56;10.57;;;4.05;;
19406;SDS011;9839;53.364;-1.204;2023-10-08T14:58:22;10.23;;;4.63;;
19406;SDS011;9839;53.364;-1.204;2023-10-08T15:00:48;8.68;;;4.43;;
19406;SDS011;9839;53.364;-1.204;2023-10-08T15:03:13;10.30;;;4.72;;
19406;SDS011;9839;53.364;-1.204;2023-10-08T15:05:39;9.65;;;3.85;;